createdAt,value
2018-11-29T00:02:13.277Z,30.80
2018-11-29T00:04:43.584Z,31.35
2018-11-29T00:07:14.609Z,31.93
2018-11-29T00:09:46.869Z,30.55
2018-11-29T00:12:19.504Z,33.45
2018-11-29T00:14:49.367Z,32.10
2018-11-29T00:17:20.340Z,31.65
2018-11-29T00:19:53.575Z,33.42
2018-11-29T00:22:27.092Z,31.12
2018-11-29T00:25:05.928Z,31.35
2018-11-29T00:27:39.058Z,32.33
2018-11-29T00:30:17.002Z,32.30
2018-11-29T00:32:49.999Z,32.23
2018-11-29T00:35:19.616Z,32.85
2018-11-29T00:37:50.832Z,32.65
2018-11-29T00:40:22.542Z,32.85
2018-11-29T00:42:52.847Z,34.15
2018-11-29T00:45:24.232Z,34.80
2018-11-29T00:47:55.493Z,33.35
2018-11-29T00:50:25.520Z,33.60
2018-11-29T00:53:03.050Z,32.83
2018-11-29T00:55:33.513Z,33.73
2018-11-29T00:58:04.819Z,33.33
2018-11-29T01:00:34.568Z,35.38
2018-11-29T01:03:05.624Z,35.03
2018-11-29T01:05:36.588Z,33.42
2018-11-29T01:08:06.891Z,33.95
2018-11-29T01:10:36.728Z,36.28
2018-11-29T01:13:07.824Z,35.00
2018-11-29T01:15:38.846Z,33.50
2018-11-29T01:18:08.539Z,35.52
2018-11-29T01:20:39.703Z,36.38
2018-11-29T01:23:10.817Z,33.15
2018-11-29T01:25:41.612Z,35.83
2018-11-29T01:28:12.966Z,37.67
2018-11-29T01:30:50.357Z,36.38
2018-11-29T01:33:20.483Z,37.25
2018-11-29T01:35:53.579Z,37.23
2018-11-29T01:38:25.867Z,34.95
2018-11-29T01:40:56.852Z,36.90
2018-11-29T01:43:27.923Z,36.45
2018-11-29T01:45:58.894Z,37.38
2018-11-29T01:48:28.769Z,37.80
2018-11-29T01:50:59.815Z,39.40
2018-11-29T01:53:30.300Z,41.20
2018-11-29T01:56:00.765Z,37.50
2018-11-29T01:58:30.336Z,38.92
2018-11-29T02:01:04.686Z,39.73
2018-11-29T02:03:34.933Z,38.15
2018-11-29T02:06:06.811Z,38.35
2018-11-29T02:08:36.999Z,38.35
2018-11-29T02:11:07.240Z,37.93
2018-11-29T02:13:38.004Z,38.98
2018-11-29T02:16:09.050Z,37.83
2018-11-29T02:18:39.016Z,39.53
2018-11-29T02:21:10.081Z,38.08
2018-11-29T02:23:41.095Z,38.08
2018-11-29T02:26:11.220Z,40.50
2018-11-29T02:28:47.305Z,38.35
2018-11-29T02:31:18.846Z,37.60
2018-11-29T02:33:49.172Z,37.00
2018-11-29T02:36:19.737Z,38.50
2018-11-29T02:38:51.110Z,38.42
2018-11-29T02:41:23.215Z,38.17
2018-11-29T02:43:55.018Z,38.25
2018-11-29T02:46:26.051Z,38.80
2018-11-29T02:48:57.153Z,40.30
2018-11-29T02:51:29.181Z,37.08
2018-11-29T02:54:01.052Z,38.45
2018-11-29T02:56:32.061Z,36.75
2018-11-29T02:59:02.905Z,40.17
2018-11-29T03:01:33.200Z,37.60
2018-11-29T03:04:04.016Z,37.90
2018-11-29T03:06:34.596Z,37.70
2018-11-29T03:09:08.017Z,37.73
2018-11-29T03:11:38.298Z,37.95
2018-11-29T03:14:09.151Z,40.67
2018-11-29T03:16:40.442Z,39.60
2018-11-29T03:19:10.086Z,38.85
2018-11-29T03:21:42.279Z,39.13
2018-11-29T03:24:13.202Z,42.17
2018-11-29T03:26:45.363Z,40.12
2018-11-29T03:29:17.299Z,41.35
2018-11-29T03:31:49.352Z,41.63
2018-11-29T03:34:19.902Z,40.55
2018-11-29T03:36:57.006Z,40.58
2018-11-29T03:39:27.956Z,41.10
2018-11-29T03:41:58.525Z,41.08
2018-11-29T03:44:29.421Z,43.70
2018-11-29T03:47:00.014Z,42.20
2018-11-29T03:49:30.659Z,43.23
2018-11-29T03:52:01.179Z,43.13
2018-11-29T03:54:32.324Z,42.98
2018-11-29T03:57:03.213Z,42.40
2018-11-29T03:59:34.040Z,41.48
2018-11-29T04:02:04.605Z,43.20
2018-11-29T04:04:35.528Z,43.75
2018-11-29T04:07:09.302Z,44.95
2018-11-29T04:09:39.447Z,43.20
2018-11-29T04:12:10.585Z,43.02
2018-11-29T04:14:40.547Z,43.08
2018-11-29T04:17:11.391Z,41.95
2018-11-29T04:19:41.601Z,43.70
2018-11-29T04:22:12.478Z,44.38
2018-11-29T04:24:42.711Z,43.25
2018-11-29T04:27:13.364Z,42.33
2018-11-29T04:29:46.836Z,44.95
2018-11-29T04:32:17.535Z,46.23
2018-11-29T04:34:48.712Z,42.35
2018-11-29T04:37:18.502Z,43.65
2018-11-29T04:39:49.582Z,39.35
2018-11-29T04:42:19.904Z,40.33
2018-11-29T04:44:50.597Z,41.42
2018-11-29T04:47:20.315Z,39.45
2018-11-29T04:49:52.663Z,38.67
2018-11-29T04:52:23.589Z,40.17
2018-11-29T04:54:53.559Z,37.63
2018-11-29T04:57:23.605Z,35.08
2018-11-29T04:59:55.773Z,34.58
2018-11-29T05:02:26.676Z,33.45
2018-11-29T05:04:57.693Z,34.90
2018-11-29T05:07:27.629Z,33.10
2018-11-29T05:09:58.764Z,32.67
2018-11-29T05:12:29.683Z,33.65
2018-11-29T05:14:59.721Z,30.15
2018-11-29T05:17:30.768Z,27.95
2018-11-29T05:20:00.802Z,24.65
2018-11-29T05:22:31.845Z,25.70
2018-11-29T05:25:01.836Z,22.67
2018-11-29T05:27:35.649Z,25.95
2018-11-29T05:30:10.508Z,24.60
2018-11-29T05:32:40.809Z,24.45
2018-11-29T05:35:11.752Z,24.67
2018-11-29T05:37:41.984Z,22.77
2018-11-29T05:40:13.559Z,21.82
2018-11-29T05:42:45.745Z,22.15
2018-11-29T05:45:16.609Z,22.27
2018-11-29T05:47:47.048Z,26.20
2018-11-29T05:50:17.997Z,25.85
2018-11-29T05:52:48.770Z,26.23
2018-11-29T05:55:19.004Z,29.15
2018-11-29T05:57:50.190Z,26.73
2018-11-29T06:00:19.945Z,31.55
2018-11-29T06:02:51.798Z,26.10
2018-11-29T06:05:22.613Z,21.85
2018-11-29T06:07:53.151Z,21.50
2018-11-29T06:10:23.094Z,21.80
2018-11-29T06:12:55.222Z,22.77
2018-11-29T06:15:25.816Z,21.60
2018-11-29T06:17:56.748Z,23.38
2018-11-29T06:20:26.786Z,22.10
2018-11-29T06:22:56.993Z,24.35
2018-11-29T06:25:28.317Z,21.65
2018-11-29T06:27:58.139Z,23.10
2018-11-29T06:30:29.100Z,22.67
2018-11-29T06:32:59.119Z,23.40
2018-11-29T06:35:29.264Z,23.75
2018-11-29T06:38:00.079Z,23.32
2018-11-29T06:40:31.197Z,22.80
2018-11-29T06:43:01.847Z,21.52
2018-11-29T06:45:32.137Z,21.97
2018-11-29T06:48:03.080Z,23.30
2018-11-29T06:50:33.247Z,22.15
2018-11-29T06:53:04.648Z,20.92
2018-11-29T06:55:35.096Z,19.15
2018-11-29T06:58:06.840Z,21.20
2018-11-29T07:00:36.498Z,20.10
2018-11-29T07:03:07.406Z,19.10
2018-11-29T07:05:38.316Z,19.92
2018-11-29T07:08:08.269Z,20.50
2018-11-29T07:10:39.305Z,18.40
2018-11-29T07:13:10.598Z,18.82
2018-11-29T07:15:41.032Z,18.87
2018-11-29T07:18:15.164Z,19.70
2018-11-29T07:20:55.061Z,21.80
2018-11-29T07:23:26.529Z,22.00
2018-11-29T07:25:56.796Z,24.70
2018-11-29T07:28:26.445Z,25.35
2018-11-29T07:30:57.416Z,25.92
2018-11-29T07:33:29.390Z,28.42
2018-11-29T07:36:01.444Z,26.57
2018-11-29T07:38:32.330Z,27.98
2018-11-29T07:41:03.124Z,29.45
2018-11-29T07:43:33.479Z,27.35
2018-11-29T07:46:04.178Z,28.15
2018-11-29T07:48:34.762Z,26.90
2018-11-29T07:51:05.593Z,27.25
2018-11-29T07:53:35.838Z,28.50
2018-11-29T07:56:06.539Z,26.65
2018-11-29T07:58:37.708Z,29.37
2018-11-29T08:01:08.466Z,31.93
2018-11-29T08:03:38.433Z,29.02
2018-11-29T08:06:08.478Z,31.90
2018-11-29T08:08:40.337Z,29.55
2018-11-29T08:11:10.553Z,30.35
2018-11-29T08:13:41.780Z,33.92
2018-11-29T08:16:12.665Z,32.88
2018-11-29T08:18:42.597Z,33.67
2018-11-29T08:21:13.607Z,35.85
2018-11-29T08:23:44.936Z,36.55
2018-11-29T08:26:14.640Z,40.50
2018-11-29T08:28:46.471Z,39.60
2018-11-29T08:31:16.629Z,42.80
2018-11-29T08:33:46.747Z,41.85
2018-11-29T08:36:17.640Z,42.55
2018-11-29T08:38:48.604Z,41.10
2018-11-29T08:41:18.902Z,41.18
2018-11-29T08:43:48.638Z,40.92
2018-11-29T08:46:20.195Z,40.78
2018-11-29T08:48:50.715Z,41.10
2018-11-29T08:51:20.521Z,48.95
2018-11-29T08:53:51.261Z,45.97
2018-11-29T08:56:20.946Z,42.83
2018-11-29T08:58:52.776Z,43.02
2018-11-29T09:01:23.920Z,44.05
2018-11-29T09:03:54.779Z,42.13
2018-11-29T09:06:25.249Z,40.83
2018-11-29T09:08:57.763Z,43.50
2018-11-29T09:11:30.274Z,41.83
2018-11-29T09:14:00.788Z,42.35
2018-11-29T09:16:30.680Z,42.95
2018-11-29T09:19:02.912Z,41.83
2018-11-29T09:21:38.052Z,41.90
2018-11-29T09:24:09.823Z,38.97
2018-11-29T09:26:40.248Z,38.40
2018-11-29T09:29:10.972Z,37.17
2018-11-29T09:31:41.903Z,35.97
2018-11-29T09:34:13.054Z,36.13
2018-11-29T09:36:42.991Z,34.80
2018-11-29T09:39:13.996Z,36.57
2018-11-29T09:41:44.095Z,33.33
2018-11-29T09:44:17.784Z,32.00
2018-11-29T09:46:49.033Z,30.20
2018-11-29T09:49:19.957Z,28.80
2018-11-29T09:51:50.066Z,30.10
2018-11-29T09:54:20.282Z,28.20
2018-11-29T09:56:52.186Z,26.95
2018-11-29T09:59:24.068Z,25.80
2018-11-29T10:01:55.155Z,24.40
2018-11-29T10:04:26.043Z,22.93
2018-11-29T10:06:56.735Z,25.23
2018-11-29T10:09:26.961Z,22.30
2018-11-29T10:11:57.910Z,22.37
2018-11-29T10:14:28.638Z,22.80
2018-11-29T10:16:59.110Z,20.90
2018-11-29T10:19:30.120Z,19.40
2018-11-29T10:22:00.914Z,20.93
2018-11-29T10:24:31.553Z,19.03
2018-11-29T10:27:01.977Z,17.67
2018-11-29T10:29:33.451Z,19.77
2018-11-29T10:32:04.085Z,19.00
2018-11-29T10:34:34.788Z,19.57
2018-11-29T10:37:05.728Z,20.70
2018-11-29T10:39:35.305Z,18.03
2018-11-29T10:42:05.130Z,17.50
2018-11-29T10:44:35.832Z,16.90
2018-11-29T10:47:08.374Z,15.67
2018-11-29T10:49:38.328Z,15.53
2018-11-29T10:52:09.733Z,16.77
2018-11-29T10:54:39.859Z,17.50
2018-11-29T10:57:10.437Z,16.17
2018-11-29T10:59:40.980Z,16.40
2018-11-29T11:02:18.241Z,17.97
2018-11-29T11:04:48.435Z,17.67
2018-11-29T11:07:20.227Z,17.20
2018-11-29T11:09:52.646Z,14.97
2018-11-29T11:12:23.321Z,14.63
2018-11-29T11:14:53.370Z,14.60
2018-11-29T11:17:23.452Z,16.10
2018-11-29T11:19:54.512Z,14.50
2018-11-29T11:22:26.405Z,14.70
2018-11-29T11:24:56.336Z,13.30
2018-11-29T11:27:26.379Z,13.80
2018-11-29T11:29:57.424Z,13.40
2018-11-29T11:32:29.320Z,13.80
2018-11-29T11:34:59.540Z,13.77
2018-11-29T11:37:30.396Z,13.37
2018-11-29T11:40:00.433Z,12.90
2018-11-29T11:42:30.612Z,14.67
2018-11-29T11:45:02.306Z,13.20
2018-11-29T11:47:33.515Z,15.30
2018-11-29T11:50:03.484Z,15.47
2018-11-29T11:52:34.442Z,14.23
2018-11-29T11:55:07.140Z,14.90
2018-11-29T11:57:38.615Z,15.53
2018-11-29T12:00:16.677Z,15.60
2018-11-29T12:02:49.969Z,14.77
2018-11-29T12:05:19.592Z,17.10
2018-11-29T12:07:50.854Z,16.63
2018-11-29T12:10:20.557Z,16.77
2018-11-29T12:12:50.521Z,16.57
2018-11-29T12:15:20.672Z,16.63
2018-11-29T12:17:52.678Z,16.60
2018-11-29T12:20:23.745Z,16.53
2018-11-29T12:22:53.705Z,19.00
2018-11-29T12:25:23.719Z,16.50
2018-11-29T12:27:54.682Z,15.70
2018-11-29T12:30:30.340Z,17.03
2018-11-29T12:33:03.848Z,16.60
2018-11-29T12:35:33.848Z,16.30
2018-11-29T12:38:03.672Z,14.73
2018-11-29T12:40:35.911Z,15.20
2018-11-29T12:43:07.113Z,15.70
2018-11-29T12:45:36.841Z,15.73
2018-11-29T12:48:06.917Z,15.10
2018-11-29T12:50:40.921Z,14.93
2018-11-29T12:53:11.830Z,15.37
2018-11-29T12:55:43.943Z,14.20
2018-11-29T12:58:13.539Z,14.80
2018-11-29T13:00:43.920Z,15.17
2018-11-29T13:03:13.906Z,13.73
2018-11-29T13:05:44.675Z,14.83
2018-11-29T13:08:17.759Z,13.60
2018-11-29T13:10:48.811Z,15.33
2018-11-29T13:13:19.997Z,14.27
2018-11-29T13:15:51.278Z,14.50
2018-11-29T13:18:20.928Z,14.37
2018-11-29T13:20:58.708Z,13.90
2018-11-29T13:23:24.856Z,13.70
2018-11-29T13:25:56.619Z,14.40
2018-11-29T13:28:27.261Z,14.43
2018-11-29T13:30:56.908Z,13.90
2018-11-29T13:36:16.383Z,13.93
2018-11-29T13:38:48.280Z,15.00
2018-11-29T13:41:19.068Z,13.90
2018-11-29T13:43:49.731Z,13.80
2018-11-29T13:46:22.035Z,13.80
2018-11-29T13:48:53.199Z,15.43
2018-11-29T13:51:24.189Z,14.10
2018-11-29T13:53:55.273Z,14.27
2018-11-29T13:56:25.260Z,14.80
2018-11-29T13:58:58.395Z,14.57
2018-11-29T14:01:27.993Z,15.40
2018-11-29T14:03:59.238Z,14.30
2018-11-29T14:06:29.702Z,13.57
2018-11-29T14:09:00.327Z,14.07
2018-11-29T14:11:30.239Z,13.50
2018-11-29T14:14:01.244Z,13.00
2018-11-29T14:16:31.590Z,15.57
2018-11-29T14:19:01.988Z,15.80
2018-11-29T14:21:32.371Z,16.07
2018-11-29T14:24:03.030Z,14.87
2018-11-29T14:26:33.253Z,15.20
2018-11-29T14:29:04.297Z,14.27
2018-11-29T14:31:34.719Z,14.90
2018-11-29T14:34:05.410Z,12.93
2018-11-29T14:36:35.487Z,14.43
2018-11-29T14:39:08.792Z,14.30
2018-11-29T14:41:43.182Z,13.13
2018-11-29T14:44:13.464Z,13.50
2018-11-29T14:46:44.344Z,14.90
2018-11-29T14:49:20.955Z,14.83
2018-11-29T14:51:51.275Z,13.63
2018-11-29T14:54:21.418Z,14.90
2018-11-29T14:56:52.625Z,13.87
2018-11-29T14:59:24.686Z,13.80
2018-11-29T15:01:54.264Z,13.27
2018-11-29T15:04:24.602Z,15.13
2018-11-29T15:06:55.412Z,14.27
2018-11-29T15:09:29.633Z,13.27
2018-11-29T15:11:59.612Z,13.60
2018-11-29T15:14:31.426Z,13.87
2018-11-29T15:17:01.654Z,13.78
2018-11-29T15:19:32.067Z,14.30
2018-11-29T15:22:02.534Z,13.90
2018-11-29T15:24:33.072Z,13.95
2018-11-29T15:27:03.463Z,14.20
2018-11-29T15:29:33.639Z,13.77
2018-11-29T15:32:05.048Z,12.95
2018-11-29T15:34:35.024Z,13.67
2018-11-29T15:37:05.210Z,14.45
2018-11-29T15:39:37.419Z,13.20
2018-11-29T15:42:09.144Z,14.18
2018-11-29T15:44:40.364Z,14.20
2018-11-29T15:47:10.384Z,13.77
2018-11-29T15:49:41.247Z,13.85
2018-11-29T15:52:15.184Z,14.13
2018-11-29T15:54:45.359Z,15.63
2018-11-29T15:57:16.405Z,13.63
2018-11-29T15:59:47.216Z,14.23
2018-11-29T16:02:17.359Z,13.68
2018-11-29T16:04:48.469Z,14.67
2018-11-29T16:07:18.060Z,14.30
2018-11-29T16:09:55.370Z,14.45
2018-11-29T16:12:27.614Z,13.22
2018-11-29T16:14:59.304Z,13.53
2018-11-29T16:17:29.928Z,13.62
2018-11-29T16:20:01.105Z,13.08
2018-11-29T16:22:31.411Z,13.10
2018-11-29T16:25:01.935Z,12.98
2018-11-29T16:27:32.904Z,12.60
2018-11-29T16:30:03.374Z,12.80
2018-11-29T16:32:33.925Z,16.75
2018-11-29T16:35:10.295Z,12.80
2018-11-29T16:37:41.535Z,11.60
2018-11-29T16:40:11.511Z,11.67
2018-11-29T16:42:42.637Z,11.00
2018-11-29T16:45:14.286Z,12.10
2018-11-29T16:47:44.723Z,13.65
2018-11-29T16:50:17.111Z,12.70
2018-11-29T16:52:46.767Z,11.90
2018-11-29T16:55:17.706Z,12.50
2018-11-29T16:57:49.622Z,12.73
2018-11-29T17:00:22.419Z,12.05
2018-11-29T17:02:52.567Z,12.60
2018-11-29T17:05:24.514Z,11.78
2018-11-29T17:07:56.610Z,12.05
2018-11-29T17:10:27.078Z,11.55
2018-11-29T17:13:05.978Z,12.15
2018-11-29T17:15:37.515Z,11.30
2018-11-29T17:18:07.846Z,12.47
2018-11-29T17:20:38.711Z,12.73
2018-11-29T17:23:10.073Z,12.20
2018-11-29T17:25:39.881Z,12.55
2018-11-29T17:28:10.728Z,11.93
2018-11-29T17:30:41.808Z,14.28
2018-11-29T17:33:11.761Z,14.47
2018-11-29T17:35:42.817Z,14.50
2018-11-29T17:38:12.887Z,15.48
2018-11-29T17:40:43.677Z,14.90
2018-11-29T17:43:14.796Z,14.60
2018-11-29T17:45:47.368Z,14.68
2018-11-29T17:48:17.394Z,15.50
2018-11-29T17:50:47.726Z,15.88
2018-11-29T17:53:17.985Z,16.75
2018-11-29T17:55:49.673Z,16.20
2018-11-29T17:58:21.316Z,16.85
2018-11-29T18:00:54.992Z,16.57
2018-11-29T18:03:29.271Z,17.45
2018-11-29T18:05:58.960Z,19.98
2018-11-29T18:08:30.043Z,18.17
2018-11-29T18:11:00.249Z,17.85
2018-11-29T18:13:34.153Z,18.37
2018-11-29T18:16:04.404Z,17.12
2018-11-29T18:18:36.935Z,17.45
2018-11-29T18:21:07.984Z,17.50
2018-11-29T18:23:38.966Z,17.42
2018-11-29T18:26:11.254Z,17.82
2018-11-29T18:28:42.964Z,19.02
2018-11-29T18:31:13.061Z,18.98
2018-11-29T18:33:46.599Z,17.42
2018-11-29T18:36:21.035Z,19.23
2018-11-29T18:38:51.200Z,18.35
2018-11-29T18:41:20.894Z,17.85
2018-11-29T18:43:53.452Z,19.17
2018-11-29T18:46:23.044Z,20.00
2018-11-29T18:48:55.992Z,19.40
2018-11-29T18:51:27.416Z,19.05
2018-11-29T18:53:57.105Z,19.15
2018-11-29T18:56:28.235Z,18.40
2018-11-29T18:58:59.089Z,22.10
2018-11-29T19:01:29.116Z,21.17
2018-11-29T19:04:00.672Z,22.93
2018-11-29T19:06:31.108Z,23.95
2018-11-29T19:09:04.110Z,21.12
2018-11-29T19:11:37.293Z,21.00
2018-11-29T19:14:10.283Z,21.25
2018-11-29T19:16:40.352Z,19.75
2018-11-29T19:19:10.197Z,20.17
2018-11-29T19:21:40.322Z,21.87
2018-11-29T19:24:11.247Z,21.65
2018-11-29T19:26:42.215Z,21.73
2018-11-29T19:29:14.548Z,21.75
2018-11-29T19:31:45.159Z,20.30
2018-11-29T19:34:15.377Z,22.10
2018-11-29T19:36:46.043Z,21.33
2018-11-29T19:39:16.438Z,22.05
2018-11-29T19:41:53.634Z,22.25
2018-11-29T19:44:24.420Z,23.27
2018-11-29T19:46:56.948Z,24.65
2018-11-29T19:49:27.266Z,23.25
2018-11-29T19:51:57.459Z,23.52
2018-11-29T19:54:28.517Z,22.80
2018-11-29T19:56:59.472Z,21.62
2018-11-29T19:59:30.667Z,21.68
2018-11-29T20:02:03.479Z,21.82
2018-11-29T20:04:34.399Z,23.55
2018-11-29T20:07:05.524Z,23.22
2018-11-29T20:09:37.681Z,23.22
2018-11-29T20:12:08.524Z,21.30
2018-11-29T20:14:39.113Z,21.93
2018-11-29T20:17:09.543Z,21.62
2018-11-29T20:19:40.622Z,21.57
2018-11-29T20:22:10.679Z,23.18
2018-11-29T20:24:41.576Z,20.95
2018-11-29T20:27:12.579Z,22.15
2018-11-29T20:29:42.580Z,22.82
2018-11-29T20:32:13.724Z,20.72
2018-11-29T20:34:48.241Z,21.10
2018-11-29T20:37:17.997Z,20.30
2018-11-29T20:39:48.574Z,22.05
2018-11-29T20:42:18.280Z,21.82
2018-11-29T20:44:50.402Z,22.10
2018-11-29T20:47:21.680Z,23.45
2018-11-29T20:49:53.674Z,23.60
2018-11-29T20:52:25.604Z,23.20
2018-11-29T20:54:57.601Z,21.50
2018-11-29T20:57:27.576Z,23.15
2018-11-29T20:59:58.608Z,23.75
2018-11-29T21:02:28.681Z,22.80
2018-11-29T21:04:59.654Z,22.30
2018-11-29T21:07:29.664Z,22.55
2018-11-29T21:10:03.043Z,22.05
2018-11-29T21:12:31.662Z,23.32
2018-11-29T21:15:02.531Z,22.42
2018-11-29T21:17:34.797Z,23.62
2018-11-29T21:20:08.334Z,23.47
2018-11-29T21:22:39.379Z,22.15
2018-11-29T21:25:17.814Z,25.02
2018-11-29T21:27:49.774Z,23.00
2018-11-29T21:30:21.868Z,22.73
2018-11-29T21:32:51.647Z,21.65
2018-11-29T21:35:22.917Z,23.22
2018-11-29T21:37:54.907Z,23.10
2018-11-29T21:40:27.382Z,23.77
2018-11-29T21:42:58.964Z,22.22
2018-11-29T21:45:30.045Z,21.60
2018-11-29T21:48:00.592Z,21.50
2018-11-29T21:50:30.902Z,23.70
2018-11-29T21:53:01.802Z,22.90
2018-11-29T21:55:32.650Z,22.02
2018-11-29T21:58:02.944Z,21.62
2018-11-29T22:00:34.107Z,21.50
2018-11-29T22:03:04.776Z,23.32
2018-11-29T22:05:34.848Z,21.40
2018-11-29T22:08:05.698Z,21.00
2018-11-29T22:10:36.020Z,21.25
2018-11-29T22:13:06.511Z,23.92
2018-11-29T22:15:36.899Z,23.40
2018-11-29T22:18:21.735Z,21.35
2018-11-29T22:20:55.875Z,21.70
2018-11-29T22:23:25.856Z,21.20
2018-11-29T22:25:58.283Z,20.77
2018-11-29T22:28:30.476Z,20.97
2018-11-29T22:31:00.881Z,20.57
2018-11-29T22:33:33.032Z,19.20
2018-11-29T22:36:06.301Z,20.82
2018-11-29T22:38:38.163Z,21.27
2018-11-29T22:41:09.168Z,19.30
2018-11-29T22:43:39.190Z,19.75
2018-11-29T22:46:10.087Z,20.20
2018-11-29T22:48:40.320Z,20.12
2018-11-29T22:51:11.015Z,19.32
2018-11-29T22:53:41.281Z,18.90
2018-11-29T22:56:14.859Z,17.95
2018-11-29T22:58:45.843Z,19.57
2018-11-29T23:01:28.451Z,18.70
2018-11-29T23:03:59.245Z,18.45
2018-11-29T23:06:30.153Z,18.90
2018-11-29T23:09:01.156Z,18.80
2018-11-29T23:11:31.351Z,20.00
2018-11-29T23:14:01.225Z,19.00
2018-11-29T23:16:32.271Z,17.85
2018-11-29T23:19:04.140Z,19.45
2018-11-29T23:21:36.221Z,18.20
2018-11-29T23:24:07.263Z,18.82
2018-11-29T23:26:38.585Z,19.70
2018-11-29T23:29:08.199Z,17.75
2018-11-29T23:31:39.229Z,20.20
2018-11-29T23:34:12.306Z,18.20
2018-11-29T23:36:43.632Z,18.65
2018-11-29T23:39:15.026Z,18.95
2018-11-29T23:41:47.480Z,20.30
2018-11-29T23:44:18.063Z,19.37
2018-11-29T23:46:50.679Z,18.40
2018-11-29T23:49:22.567Z,17.60
2018-11-29T23:51:54.756Z,17.48
2018-11-29T23:54:27.372Z,18.02
2018-11-29T23:56:58.325Z,18.23
2018-11-29T23:59:29.598Z,17.73
